createdAt,value
2018-07-13T00:01:33.239Z,17.49
2018-07-13T00:04:00.809Z,17.43
2018-07-13T00:06:28.379Z,17.35
2018-07-13T00:08:55.981Z,17.33
2018-07-13T00:11:23.508Z,17.35
2018-07-13T00:14:21.405Z,17.39
2018-07-13T00:16:50.018Z,17.48
2018-07-13T00:19:18.259Z,17.50
2018-07-13T00:21:45.902Z,17.46
2018-07-13T00:24:13.471Z,17.44
2018-07-13T00:26:41.086Z,17.45
2018-07-13T00:29:09.075Z,17.31
2018-07-13T00:31:37.561Z,17.12
2018-07-13T00:34:05.430Z,17.17
2018-07-13T00:36:32.997Z,17.27
2018-07-13T00:39:00.570Z,17.33
2018-07-13T00:41:28.287Z,17.27
2018-07-13T00:43:55.875Z,17.27
2018-07-13T00:46:23.605Z,17.27
2018-07-13T00:48:51.166Z,17.21
2018-07-13T00:51:18.831Z,17.10
2018-07-13T00:53:46.722Z,17.06
2018-07-13T00:56:14.330Z,17.07
2018-07-13T00:58:41.990Z,17.08
2018-07-13T01:01:09.554Z,17.11
2018-07-13T01:03:37.125Z,17.08
2018-07-13T01:06:04.767Z,16.95
2018-07-13T01:08:32.371Z,16.78
2018-07-13T01:10:59.949Z,16.63
2018-07-13T01:13:27.494Z,16.49
2018-07-13T01:15:55.263Z,16.51
2018-07-13T01:18:22.802Z,16.51
2018-07-13T01:20:50.417Z,16.52
2018-07-13T01:23:18.039Z,16.46
2018-07-13T01:25:45.594Z,16.33
2018-07-13T01:28:13.201Z,16.35
2018-07-13T01:30:40.811Z,16.36
2018-07-13T01:33:08.375Z,16.33
2018-07-13T01:35:35.898Z,16.27
2018-07-13T01:38:03.537Z,16.28
2018-07-13T01:40:31.077Z,16.21
2018-07-13T01:43:00.665Z,16.15
2018-07-13T01:45:28.222Z,16.18
2018-07-13T01:47:55.741Z,16.11
2018-07-13T01:50:23.311Z,16.19
2018-07-13T01:52:51.229Z,16.21
2018-07-13T01:55:18.758Z,16.13
2018-07-13T01:57:46.290Z,15.93
2018-07-13T02:00:13.873Z,15.98
2018-07-13T02:02:41.431Z,15.92
2018-07-13T02:05:08.978Z,16.04
2018-07-13T02:07:36.622Z,15.98
2018-07-13T02:10:04.231Z,15.98
2018-07-13T02:12:31.762Z,16.05
2018-07-13T02:14:59.330Z,16.09
2018-07-13T02:17:26.870Z,16.14
2018-07-13T02:19:54.387Z,16.12
2018-07-13T02:22:21.998Z,16.11
2018-07-13T02:24:49.558Z,16.12
2018-07-13T02:27:17.272Z,16.14
2018-07-13T02:29:44.868Z,16.17
2018-07-13T02:32:12.418Z,16.17
2018-07-13T02:34:39.967Z,16.10
2018-07-13T02:37:07.725Z,16.15
2018-07-13T02:39:35.395Z,16.13
2018-07-13T02:42:03.102Z,16.11
2018-07-13T02:44:30.991Z,16.14
2018-07-13T02:46:58.555Z,16.18
2018-07-13T02:49:26.099Z,16.12
2018-07-13T02:51:53.695Z,16.03
2018-07-13T02:54:21.213Z,15.99
2018-07-13T02:56:48.795Z,15.93
2018-07-13T02:59:16.374Z,15.92
2018-07-13T03:01:43.930Z,15.92
2018-07-13T03:04:11.438Z,15.92
2018-07-13T03:06:39.034Z,15.95
2018-07-13T03:09:08.402Z,15.97
2018-07-13T03:11:36.030Z,15.99
2018-07-13T03:14:03.882Z,16.08
2018-07-13T03:16:31.401Z,16.13
2018-07-13T03:18:58.922Z,16.17
2018-07-13T03:21:26.526Z,16.24
2018-07-13T03:23:54.072Z,16.22
2018-07-13T03:26:21.606Z,16.08
2018-07-13T03:28:49.349Z,16.04
2018-07-13T03:31:16.897Z,15.85
2018-07-13T03:33:44.591Z,15.92
2018-07-13T03:36:12.158Z,15.86
2018-07-13T03:38:39.670Z,16.00
2018-07-13T03:41:07.207Z,15.99
2018-07-13T03:43:34.766Z,16.05
2018-07-13T03:46:02.278Z,16.09
2018-07-13T03:48:29.912Z,16.12
2018-07-13T03:50:57.448Z,16.15
2018-07-13T03:53:25.104Z,16.22
2018-07-13T03:55:52.635Z,16.03
2018-07-13T03:58:20.229Z,16.04
2018-07-13T04:00:47.767Z,16.11
2018-07-13T04:03:15.374Z,16.13
2018-07-13T04:05:43.030Z,16.10
2018-07-13T04:08:10.664Z,16.08
2018-07-13T04:10:38.213Z,16.15
2018-07-13T04:13:05.867Z,16.17
2018-07-13T04:15:33.427Z,16.17
2018-07-13T04:18:01.001Z,16.27
2018-07-13T04:20:28.673Z,16.34
2018-07-13T04:22:56.333Z,16.44
2018-07-13T04:25:23.949Z,16.57
2018-07-13T04:27:51.653Z,16.62
2018-07-13T04:30:19.321Z,16.67
2018-07-13T04:32:46.837Z,16.68
2018-07-13T04:35:14.456Z,16.75
2018-07-13T04:37:41.982Z,16.82
2018-07-13T04:40:09.534Z,16.87
2018-07-13T04:42:37.137Z,16.88
2018-07-13T04:45:04.809Z,16.89
2018-07-13T04:47:32.498Z,16.95
2018-07-13T04:50:00.229Z,16.96
2018-07-13T04:52:27.913Z,17.05
2018-07-13T04:54:55.556Z,17.07
2018-07-13T04:57:23.274Z,17.15
2018-07-13T04:59:50.947Z,17.21
2018-07-13T05:02:18.693Z,17.19
2018-07-13T05:04:46.344Z,17.17
2018-07-13T05:07:14.085Z,17.23
2018-07-13T05:09:41.721Z,17.19
2018-07-13T05:12:09.294Z,17.20
2018-07-13T05:14:36.865Z,17.32
2018-07-13T05:17:04.582Z,17.46
2018-07-13T05:19:32.145Z,17.63
2018-07-13T05:21:59.813Z,17.73
2018-07-13T05:24:27.468Z,17.78
2018-07-13T05:26:55.229Z,17.99
2018-07-13T05:29:22.829Z,18.07
2018-07-13T05:31:50.505Z,18.15
2018-07-13T05:34:18.180Z,18.18
2018-07-13T05:36:45.874Z,18.19
2018-07-13T05:39:13.517Z,18.30
2018-07-13T05:41:41.608Z,18.32
2018-07-13T05:44:09.249Z,18.36
2018-07-13T05:46:36.903Z,18.44
2018-07-13T05:49:04.794Z,18.41
2018-07-13T05:51:32.461Z,18.34
2018-07-13T05:54:00.117Z,18.43
2018-07-13T05:56:27.842Z,18.44
2018-07-13T05:58:55.493Z,18.44
2018-07-13T06:01:23.134Z,18.37
2018-07-13T06:03:50.822Z,18.48
2018-07-13T06:06:18.542Z,18.43
2018-07-13T06:08:46.191Z,18.45
2018-07-13T06:11:15.058Z,18.59
2018-07-13T06:13:42.603Z,18.67
2018-07-13T06:16:10.138Z,18.73
2018-07-13T06:18:37.704Z,18.90
2018-07-13T06:21:05.282Z,18.98
2018-07-13T06:23:32.825Z,19.19
2018-07-13T06:26:00.446Z,19.30
2018-07-13T06:28:28.061Z,19.46
2018-07-13T06:30:55.686Z,19.61
2018-07-13T06:33:23.315Z,19.66
2018-07-13T06:35:50.831Z,19.77
2018-07-13T06:38:18.463Z,19.94
2018-07-13T06:40:47.059Z,19.81
2018-07-13T06:43:14.743Z,19.77
2018-07-13T06:45:42.415Z,19.96
2018-07-13T06:48:10.365Z,20.24
2018-07-13T06:50:38.165Z,20.55
2018-07-13T06:53:05.954Z,20.83
2018-07-13T06:55:33.583Z,21.12
2018-07-13T06:58:12.350Z,21.21
2018-07-13T07:00:56.834Z,21.43
2018-07-13T07:03:25.303Z,21.45
2018-07-13T07:06:10.998Z,21.65
2018-07-13T07:08:40.769Z,21.49
2018-07-13T07:11:08.455Z,21.54
2018-07-13T07:13:37.995Z,21.57
2018-07-13T07:16:05.747Z,21.63
2018-07-13T07:18:33.341Z,21.49
2018-07-13T07:21:00.983Z,21.58
2018-07-13T07:23:29.192Z,21.93
2018-07-13T07:25:57.728Z,22.23
2018-07-13T07:28:25.503Z,22.57
2018-07-13T07:30:53.659Z,22.81
2018-07-13T07:33:21.298Z,23.01
2018-07-13T07:35:48.875Z,23.12
2018-07-13T07:38:16.441Z,23.37
2018-07-13T07:40:44.218Z,23.48
2018-07-13T07:43:11.934Z,23.64
2018-07-13T07:45:39.484Z,23.78
2018-07-13T07:48:07.118Z,23.83
2018-07-13T07:50:34.919Z,23.90
2018-07-13T07:53:02.595Z,23.98
2018-07-13T07:55:30.226Z,24.20
2018-07-13T07:57:57.807Z,24.38
2018-07-13T08:00:25.349Z,24.36
2018-07-13T08:02:53.603Z,24.66
2018-07-13T08:05:21.192Z,24.81
2018-07-13T08:07:48.730Z,24.76
2018-07-13T08:10:16.276Z,24.70
2018-07-13T08:12:43.847Z,24.93
2018-07-13T08:15:11.466Z,25.22
2018-07-13T08:17:39.073Z,25.52
2018-07-13T08:20:06.750Z,25.71
2018-07-13T08:22:38.662Z,25.83
2018-07-13T08:25:08.304Z,26.03
2018-07-13T08:27:40.779Z,26.18
2018-07-13T08:30:17.462Z,26.28
2018-07-13T08:32:45.486Z,26.42
2018-07-13T08:35:13.022Z,26.48
2018-07-13T08:37:40.674Z,26.58
2018-07-13T08:40:08.279Z,26.69
2018-07-13T08:42:36.035Z,26.87
2018-07-13T08:45:03.715Z,27.07
2018-07-13T08:47:31.328Z,27.16
2018-07-13T08:49:58.890Z,27.49
2018-07-13T08:52:26.580Z,27.62
2018-07-13T08:54:54.534Z,28.23
2018-07-13T08:57:22.263Z,28.36
2018-07-13T08:59:49.975Z,28.10
2018-07-13T09:02:17.502Z,28.25
2018-07-13T09:04:45.163Z,28.54
2018-07-13T09:07:12.727Z,28.68
2018-07-13T09:09:40.323Z,28.93
2018-07-13T09:12:08.007Z,29.08
2018-07-13T09:14:35.669Z,29.04
2018-07-13T09:17:03.236Z,28.84
2018-07-13T09:19:30.792Z,28.35
2018-07-13T09:21:58.394Z,29.20
2018-07-13T09:24:25.992Z,29.28
2018-07-13T09:26:53.577Z,29.51
2018-07-13T09:29:21.173Z,29.49
2018-07-13T09:31:48.759Z,28.84
2018-07-13T09:34:16.318Z,29.40
2018-07-13T09:36:43.993Z,29.75
2018-07-13T09:39:11.603Z,29.81
2018-07-13T09:41:39.208Z,29.90
2018-07-13T09:44:06.811Z,28.57
2018-07-13T09:46:34.622Z,28.99
2018-07-13T09:49:02.143Z,29.42
2018-07-13T09:51:29.785Z,30.06
2018-07-13T09:53:57.441Z,30.66
2018-07-13T09:56:24.968Z,29.41
2018-07-13T09:58:52.575Z,28.37
2018-07-13T10:01:21.299Z,29.15
2018-07-13T10:03:49.012Z,30.01
2018-07-13T10:06:16.729Z,30.26
2018-07-13T10:08:44.498Z,29.37
2018-07-13T10:11:12.138Z,29.74
2018-07-13T10:13:40.047Z,30.72
2018-07-13T10:16:07.630Z,31.20
2018-07-13T10:18:35.295Z,30.10
2018-07-13T10:21:03.151Z,29.62
2018-07-13T10:23:31.447Z,29.76
2018-07-13T10:26:02.223Z,29.68
2018-07-13T10:28:30.779Z,30.71
2018-07-13T10:30:58.447Z,31.53
2018-07-13T10:33:26.239Z,30.39
2018-07-13T10:35:54.346Z,29.38
2018-07-13T10:38:22.107Z,28.39
2018-07-13T10:40:49.717Z,29.71
2018-07-13T10:43:17.347Z,30.75
2018-07-13T10:45:45.025Z,31.66
2018-07-13T10:48:12.655Z,31.13
2018-07-13T10:50:40.191Z,29.93
2018-07-13T10:53:07.735Z,31.03
2018-07-13T10:55:35.356Z,31.08
2018-07-13T10:58:02.930Z,30.45
2018-07-13T11:00:30.535Z,30.89
2018-07-13T11:02:58.230Z,30.62
2018-07-13T11:05:25.691Z,29.80
2018-07-13T11:07:53.225Z,29.22
2018-07-13T11:10:20.815Z,28.74
2018-07-13T11:12:48.357Z,28.49
2018-07-13T11:15:16.003Z,27.82
2018-07-13T11:17:43.632Z,27.35
2018-07-13T11:20:11.207Z,26.98
2018-07-13T11:22:38.750Z,27.04
2018-07-13T11:25:06.332Z,27.21
2018-07-13T11:27:33.874Z,27.59
2018-07-13T11:30:01.450Z,29.55
2018-07-13T11:32:29.059Z,31.13
2018-07-13T11:34:56.611Z,32.38
2018-07-13T11:37:24.250Z,31.97
2018-07-13T11:39:51.814Z,32.69
2018-07-13T11:42:19.363Z,31.69
2018-07-13T11:44:46.904Z,30.62
2018-07-13T11:47:14.499Z,29.74
2018-07-13T11:49:42.042Z,29.08
2018-07-13T11:52:09.684Z,28.90
2018-07-13T11:54:37.211Z,28.67
2018-07-13T11:57:04.774Z,28.56
2018-07-13T11:59:32.307Z,28.26
2018-07-13T12:01:59.912Z,27.95
2018-07-13T12:04:27.463Z,28.18
2018-07-13T12:06:54.987Z,28.81
2018-07-13T12:09:22.572Z,29.31
2018-07-13T12:11:50.147Z,30.09
2018-07-13T12:14:17.748Z,31.17
2018-07-13T12:16:45.465Z,30.47
2018-07-13T12:19:13.011Z,29.79
2018-07-13T12:21:40.614Z,29.21
2018-07-13T12:24:08.219Z,28.85
2018-07-13T12:26:35.810Z,28.55
2018-07-13T12:29:03.422Z,28.39
2018-07-13T12:31:31.035Z,28.31
2018-07-13T12:33:58.686Z,28.23
2018-07-13T12:36:26.362Z,29.00
2018-07-13T12:38:53.935Z,30.93
2018-07-13T12:41:21.535Z,30.68
2018-07-13T12:43:49.343Z,29.86
2018-07-13T12:46:16.922Z,29.32
2018-07-13T12:48:44.497Z,28.96
2018-07-13T12:51:12.076Z,28.77
2018-07-13T12:53:39.687Z,28.70
2018-07-13T12:56:07.328Z,28.56
2018-07-13T12:58:34.959Z,28.42
2018-07-13T13:01:02.602Z,29.00
2018-07-13T13:03:30.161Z,31.93
2018-07-13T13:05:58.162Z,33.51
2018-07-13T13:08:25.742Z,34.76
2018-07-13T13:10:53.318Z,34.63
2018-07-13T13:13:20.875Z,33.51
2018-07-13T13:15:48.454Z,32.20
2018-07-13T13:18:15.997Z,31.60
2018-07-13T13:20:43.702Z,30.89
2018-07-13T13:23:11.278Z,30.39
2018-07-13T13:25:38.866Z,30.04
2018-07-13T13:28:06.441Z,30.54
2018-07-13T13:30:34.084Z,30.79
2018-07-13T13:33:01.750Z,30.78
2018-07-13T13:35:29.417Z,33.33
2018-07-13T13:37:57.005Z,34.25
2018-07-13T13:40:26.328Z,35.22
2018-07-13T13:42:53.897Z,36.55
2018-07-13T13:45:21.485Z,37.64
2018-07-13T13:47:49.148Z,37.35
2018-07-13T13:50:16.706Z,37.73
2018-07-13T13:52:44.383Z,36.83
2018-07-13T13:55:11.960Z,37.64
2018-07-13T13:57:39.506Z,37.43
2018-07-13T14:00:07.135Z,37.74
2018-07-13T14:02:34.675Z,36.78
2018-07-13T14:05:02.225Z,37.94
2018-07-13T14:07:29.821Z,37.41
2018-07-13T14:09:57.347Z,38.52
2018-07-13T14:12:24.932Z,39.17
2018-07-13T14:14:52.564Z,39.02
2018-07-13T14:17:20.123Z,37.21
2018-07-13T14:19:47.673Z,36.20
2018-07-13T14:22:15.262Z,37.94
2018-07-13T14:24:42.847Z,38.53
2018-07-13T14:27:10.419Z,38.89
2018-07-13T14:29:38.042Z,39.31
2018-07-13T14:32:05.644Z,39.59
2018-07-13T14:34:33.307Z,38.34
2018-07-13T14:37:00.963Z,38.25
2018-07-13T14:39:28.587Z,38.42
2018-07-13T14:41:56.340Z,38.20
2018-07-13T14:44:23.967Z,37.99
2018-07-13T14:46:51.553Z,35.57
2018-07-13T14:49:19.102Z,34.05
2018-07-13T14:51:46.749Z,32.72
2018-07-13T14:54:14.362Z,31.96
2018-07-13T14:56:41.943Z,32.69
2018-07-13T14:59:09.558Z,34.41
2018-07-13T15:01:37.270Z,35.41
2018-07-13T15:04:05.036Z,34.96
2018-07-13T15:06:32.751Z,34.88
2018-07-13T15:09:00.232Z,34.88
2018-07-13T15:11:27.827Z,34.87
2018-07-13T15:13:55.431Z,34.73
2018-07-13T15:16:22.984Z,34.37
2018-07-13T15:18:50.663Z,33.66
2018-07-13T15:21:18.254Z,33.49
2018-07-13T15:23:45.970Z,32.93
2018-07-13T15:26:13.522Z,32.46
2018-07-13T15:28:41.106Z,32.21
2018-07-13T15:31:08.692Z,31.67
2018-07-13T15:33:36.267Z,31.42
2018-07-13T15:36:03.926Z,31.03
2018-07-13T15:38:31.510Z,30.55
2018-07-13T15:40:59.035Z,30.17
2018-07-13T15:43:26.674Z,29.92
2018-07-13T15:45:54.212Z,29.89
2018-07-13T15:48:21.774Z,29.97
2018-07-13T15:50:49.350Z,29.96
2018-07-13T15:53:16.899Z,29.99
2018-07-13T15:55:50.098Z,29.84
2018-07-13T15:58:17.655Z,29.80
2018-07-13T16:00:45.256Z,29.66
2018-07-13T16:03:12.871Z,29.46
2018-07-13T16:05:40.540Z,29.24
2018-07-13T16:08:08.039Z,29.12
2018-07-13T16:10:35.718Z,29.08
2018-07-13T16:13:03.278Z,29.16
2018-07-13T16:15:30.924Z,29.28
2018-07-13T16:17:58.533Z,29.16
2018-07-13T16:20:26.097Z,29.08
2018-07-13T16:22:53.725Z,28.96
2018-07-13T16:25:21.319Z,28.95
2018-07-13T16:27:49.004Z,28.95
2018-07-13T16:30:16.634Z,28.80
2018-07-13T16:32:44.226Z,28.72
2018-07-13T16:35:11.765Z,28.66
2018-07-13T16:37:39.354Z,28.68
2018-07-13T16:40:06.932Z,28.58
2018-07-13T16:42:34.479Z,28.44
2018-07-13T16:45:02.169Z,28.30
2018-07-13T16:47:29.771Z,28.19
2018-07-13T16:49:57.366Z,28.17
2018-07-13T16:52:24.942Z,28.12
2018-07-13T16:54:52.550Z,28.09
2018-07-13T16:57:20.162Z,28.08
2018-07-13T16:59:47.706Z,28.14
2018-07-13T17:02:15.378Z,28.17
2018-07-13T17:04:43.020Z,28.12
2018-07-13T17:07:10.581Z,28.11
2018-07-13T17:09:38.190Z,28.14
2018-07-13T17:12:05.857Z,28.00
2018-07-13T17:14:33.440Z,27.91
2018-07-13T17:17:01.067Z,27.84
2018-07-13T17:19:28.651Z,27.70
2018-07-13T17:21:56.256Z,27.67
2018-07-13T17:24:23.875Z,27.60
2018-07-13T17:26:51.494Z,27.55
2018-07-13T17:29:19.081Z,27.53
2018-07-13T17:31:46.691Z,27.55
2018-07-13T17:34:14.295Z,27.53
2018-07-13T17:36:41.960Z,27.48
2018-07-13T17:39:09.617Z,27.47
2018-07-13T17:41:37.216Z,27.40
2018-07-13T17:44:04.790Z,27.32
2018-07-13T17:46:32.366Z,27.22
2018-07-13T17:49:00.237Z,27.08
2018-07-13T17:51:27.723Z,27.02
2018-07-13T17:53:55.285Z,26.89
2018-07-13T17:56:22.835Z,26.80
2018-07-13T17:58:50.398Z,26.73
2018-07-13T18:01:18.032Z,26.66
2018-07-13T18:03:45.582Z,26.56
2018-07-13T18:06:13.118Z,26.48
2018-07-13T18:08:40.738Z,26.41
2018-07-13T18:11:08.314Z,26.34
2018-07-13T18:13:35.872Z,26.24
2018-07-13T18:16:03.484Z,26.20
2018-07-13T18:18:31.074Z,26.13
2018-07-13T18:20:58.632Z,26.06
2018-07-13T18:23:26.203Z,25.99
2018-07-13T18:25:53.806Z,25.93
2018-07-13T18:28:21.347Z,25.86
2018-07-13T18:30:48.943Z,25.76
2018-07-13T18:33:16.481Z,25.70
2018-07-13T18:35:44.122Z,25.62
2018-07-13T18:38:11.706Z,25.57
2018-07-13T18:40:39.231Z,25.48
2018-07-13T18:43:06.826Z,25.42
2018-07-13T18:45:34.422Z,25.33
2018-07-13T18:48:02.086Z,25.27
2018-07-13T18:50:29.702Z,25.16
2018-07-13T18:52:57.403Z,25.08
2018-07-13T18:55:24.963Z,25.02
2018-07-13T18:57:52.540Z,24.94
2018-07-13T19:00:20.107Z,24.87
2018-07-13T19:02:47.643Z,24.77
2018-07-13T19:05:15.198Z,24.72
2018-07-13T19:07:42.742Z,24.64
2018-07-13T19:10:10.263Z,24.57
2018-07-13T19:12:37.875Z,24.53
2018-07-13T19:15:05.734Z,24.45
2018-07-13T19:17:33.265Z,24.39
2018-07-13T19:20:00.866Z,24.34
2018-07-13T19:22:28.468Z,24.27
2018-07-13T19:24:56.088Z,24.21
2018-07-13T19:27:23.655Z,24.12
2018-07-13T19:29:51.241Z,24.04
2018-07-13T19:32:18.786Z,23.97
2018-07-13T19:34:46.520Z,23.90
2018-07-13T19:37:14.082Z,23.84
2018-07-13T19:39:42.434Z,23.78
2018-07-13T19:42:10.046Z,23.76
2018-07-13T19:44:37.606Z,23.70
2018-07-13T19:47:05.502Z,23.66
2018-07-13T19:49:33.267Z,23.63
2018-07-13T19:52:01.041Z,23.58
2018-07-13T19:54:28.727Z,23.55
2018-07-13T19:56:56.312Z,23.52
2018-07-13T19:59:23.870Z,23.50
2018-07-13T20:01:51.465Z,23.43
2018-07-13T20:04:19.025Z,23.37
2018-07-13T20:06:46.798Z,23.34
2018-07-13T20:09:14.378Z,23.27
2018-07-13T20:11:42.179Z,23.21
2018-07-13T20:14:09.863Z,23.15
2018-07-13T20:16:37.460Z,23.09
2018-07-13T20:19:05.062Z,23.05
2018-07-13T20:21:32.660Z,23.05
2018-07-13T20:24:00.239Z,23.03
2018-07-13T20:26:27.840Z,22.98
2018-07-13T20:28:58.631Z,22.94
2018-07-13T20:31:29.663Z,22.89
2018-07-13T20:33:59.045Z,22.85
2018-07-13T20:36:26.764Z,22.79
2018-07-13T20:38:55.092Z,22.72
2018-07-13T20:41:23.069Z,22.67
2018-07-13T20:43:51.259Z,22.59
2018-07-13T20:46:19.377Z,22.57
2018-07-13T20:48:47.525Z,22.51
2018-07-13T20:51:15.292Z,22.43
2018-07-13T20:53:42.933Z,22.38
2018-07-13T20:56:10.547Z,22.32
2018-07-13T20:58:38.151Z,22.27
2018-07-13T21:01:06.000Z,22.22
2018-07-13T21:03:33.691Z,22.18
2018-07-13T21:06:01.550Z,22.13
2018-07-13T21:08:29.375Z,22.08
2018-07-13T21:10:57.494Z,22.02
2018-07-13T21:13:25.254Z,21.97
2018-07-13T21:15:53.060Z,21.92
2018-07-13T21:18:21.350Z,21.89
2018-07-13T21:20:48.973Z,21.87
2018-07-13T21:23:16.649Z,21.84
2018-07-13T21:25:44.262Z,21.76
2018-07-13T21:28:11.809Z,21.73
2018-07-13T21:30:39.983Z,21.68
2018-07-13T21:33:07.933Z,21.61
2018-07-13T21:35:35.754Z,21.57
2018-07-13T21:38:04.562Z,21.54
2018-07-13T21:40:32.606Z,21.48
2018-07-13T21:43:00.498Z,21.44
2018-07-13T21:45:28.660Z,21.40
2018-07-13T21:47:57.519Z,21.36
2018-07-13T21:50:25.356Z,21.31
2018-07-13T21:52:53.206Z,21.26
2018-07-13T21:55:21.168Z,21.22
2018-07-13T21:57:48.982Z,21.19
2018-07-13T22:00:16.789Z,21.15
2018-07-13T22:02:44.551Z,21.11
2018-07-13T22:05:12.345Z,21.08
2018-07-13T22:07:40.250Z,21.06
2018-07-13T22:10:07.908Z,21.00
2018-07-13T22:12:35.466Z,20.93
2018-07-13T22:15:04.596Z,20.89
2018-07-13T22:17:32.280Z,20.84
2018-07-13T22:19:59.958Z,20.84
2018-07-13T22:22:27.572Z,20.81
2018-07-13T22:24:55.529Z,20.80
2018-07-13T22:27:23.394Z,20.79
2018-07-13T22:29:51.282Z,20.78
2018-07-13T22:32:19.284Z,20.77
2018-07-13T22:34:47.250Z,20.73
2018-07-13T22:37:15.042Z,20.67
2018-07-13T22:39:42.904Z,20.65
2018-07-13T22:42:11.183Z,20.61
2018-07-13T22:44:38.982Z,20.58
2018-07-13T22:47:06.884Z,20.55
2018-07-13T22:49:34.508Z,20.54
2018-07-13T22:52:02.481Z,20.52
2018-07-13T22:54:30.126Z,20.50
2018-07-13T22:56:58.204Z,20.48
2018-07-13T22:59:26.182Z,20.46
2018-07-13T23:01:54.062Z,20.44
2018-07-13T23:04:21.823Z,20.42
2018-07-13T23:06:49.588Z,20.42
2018-07-13T23:09:17.468Z,20.41
2018-07-13T23:11:45.144Z,20.41
2018-07-13T23:14:12.844Z,20.40
2018-07-13T23:16:40.491Z,20.40
2018-07-13T23:19:08.284Z,20.43
2018-07-13T23:21:35.965Z,20.38
2018-07-13T23:24:03.786Z,20.33
2018-07-13T23:26:31.643Z,20.29
2018-07-13T23:28:59.382Z,20.26
2018-07-13T23:31:27.267Z,20.22
2018-07-13T23:33:55.115Z,20.20
2018-07-13T23:36:22.646Z,20.19
2018-07-13T23:38:50.236Z,20.15
2018-07-13T23:41:17.890Z,20.14
2018-07-13T23:43:45.669Z,20.16
2018-07-13T23:46:13.433Z,20.07
2018-07-13T23:48:41.023Z,20.01
2018-07-13T23:51:08.583Z,19.95
2018-07-13T23:53:36.151Z,19.88
2018-07-13T23:56:03.819Z,19.88
2018-07-13T23:58:31.394Z,20.07
